createdAt,value
2023-03-21T00:01:33.025Z,100644.36
2023-03-21T00:04:01.587Z,100640.49
2023-03-21T00:06:31.135Z,100637.88
2023-03-21T00:08:59.378Z,100628.54
2023-03-21T00:11:28.927Z,100624.73
2023-03-21T00:13:58.697Z,100622.09
2023-03-21T00:16:30.320Z,100615.83
2023-03-21T00:19:03.853Z,100613.12
2023-03-21T00:21:46.625Z,100614.42
2023-03-21T00:24:23.251Z,100609.77
2023-03-21T00:26:51.973Z,100609.16
2023-03-21T00:29:20.828Z,100611.30
2023-03-21T00:31:51.013Z,100607.23
2023-03-21T00:34:26.806Z,100603.20
2023-03-21T00:37:07.570Z,100597.81
2023-03-21T00:39:36.380Z,100593.19
2023-03-21T00:42:04.605Z,100592.01
2023-03-21T00:44:36.960Z,100587.23
2023-03-21T00:47:07.846Z,100587.95
2023-03-21T00:49:42.368Z,100581.88
2023-03-21T00:52:27.318Z,100583.15
2023-03-21T00:54:59.810Z,100582.92
2023-03-21T00:57:38.500Z,100584.63
2023-03-21T01:00:10.903Z,100578.29
2023-03-21T01:03:02.793Z,100573.56
2023-03-21T01:05:54.465Z,100571.12
2023-03-21T01:08:29.396Z,100568.23
2023-03-21T01:11:08.372Z,100567.92
2023-03-21T01:13:40.772Z,100566.48
2023-03-21T01:16:13.249Z,100563.32
2023-03-21T01:18:41.967Z,100558.95
2023-03-21T01:21:12.899Z,100557.97
2023-03-21T01:23:41.621Z,100560.18
2023-03-21T01:26:10.784Z,100559.92
2023-03-21T01:28:39.758Z,100561.03
2023-03-21T01:31:08.494Z,100557.98
2023-03-21T01:33:36.936Z,100554.14
2023-03-21T01:36:12.647Z,100558.05
2023-03-21T01:38:43.324Z,100559.35
2023-03-21T01:41:42.929Z,100563.09
2023-03-21T01:44:20.539Z,100563.30
2023-03-21T01:47:07.338Z,100566.33
2023-03-21T01:49:53.070Z,100564.89
2023-03-21T01:52:37.381Z,100562.25
2023-03-21T01:55:18.745Z,100560.77
2023-03-21T01:58:06.358Z,100555.74
2023-03-21T02:00:51.814Z,100557.72
2023-03-21T02:03:50.871Z,100555.60
2023-03-21T02:07:10.350Z,100553.81
2023-03-21T02:09:49.792Z,100547.36
2023-03-21T02:20:22.322Z,100549.70
2023-03-21T02:23:00.432Z,100551.50
2023-03-21T02:26:08.142Z,100552.25
2023-03-21T02:28:52.486Z,100552.05
2023-03-21T02:32:06.014Z,100546.79
2023-03-21T02:35:16.216Z,100544.55
2023-03-21T02:37:55.175Z,100546.02
2023-03-21T02:40:43.538Z,100544.15
2023-03-21T02:43:23.349Z,100549.88
2023-03-21T02:46:01.238Z,100551.88
2023-03-21T02:48:49.749Z,100545.20
2023-03-21T02:51:21.336Z,100544.16
2023-03-21T02:54:20.043Z,100547.05
2023-03-21T02:56:43.209Z,100545.77
2023-03-21T02:59:11.543Z,100542.45
2023-03-21T03:01:39.752Z,100541.35
2023-03-21T03:04:20.095Z,100540.96
2023-03-21T03:07:09.899Z,100540.50
2023-03-21T03:10:06.011Z,100538.48
2023-03-21T03:12:54.390Z,100536.30
2023-03-21T03:15:45.927Z,100532.99
2023-03-21T03:18:33.103Z,100540.48
2023-03-21T03:21:07.613Z,100533.30
2023-03-21T03:23:55.895Z,100535.25
2023-03-21T03:26:45.383Z,100534.36
2023-03-21T03:29:18.015Z,100529.44
2023-03-21T03:32:12.392Z,100529.00
2023-03-21T03:34:44.039Z,100527.87
2023-03-21T03:37:14.583Z,100526.77
2023-03-21T03:39:53.685Z,100527.39
2023-03-21T03:42:28.778Z,100528.23
2023-03-21T03:45:17.812Z,100527.39
2023-03-21T03:48:07.898Z,100520.45
2023-03-21T03:51:06.382Z,100520.52
2023-03-21T03:54:03.943Z,100517.95
2023-03-21T03:56:37.770Z,100517.48
2023-03-21T03:59:07.575Z,100513.60
2023-03-21T04:02:05.158Z,100508.58
2023-03-21T04:04:34.694Z,100511.08
2023-03-21T04:07:03.837Z,100508.05
2023-03-21T04:09:43.683Z,100506.02
2023-03-21T04:12:15.095Z,100506.27
2023-03-21T04:14:47.149Z,100505.98
2023-03-21T04:17:22.904Z,100509.81
2023-03-21T04:19:57.619Z,100510.89
2023-03-21T04:22:29.664Z,100513.39
2023-03-21T04:25:01.629Z,100517.97
2023-03-21T04:27:32.963Z,100518.20
2023-03-21T04:30:19.817Z,100517.98
2023-03-21T04:32:57.171Z,100517.33
2023-03-21T04:35:25.961Z,100512.84
2023-03-21T04:37:58.343Z,100515.14
2023-03-21T04:40:26.911Z,100513.29
2023-03-21T04:42:57.034Z,100512.86
2023-03-21T04:45:25.446Z,100515.33
2023-03-21T04:47:53.543Z,100511.56
2023-03-21T04:50:25.342Z,100512.08
2023-03-21T04:52:54.280Z,100515.40
2023-03-21T04:55:23.170Z,100514.95
2023-03-21T04:57:51.479Z,100517.19
2023-03-21T05:00:21.040Z,100515.55
2023-03-21T05:02:50.618Z,100511.78
2023-03-21T05:05:18.895Z,100516.41
2023-03-21T05:07:47.072Z,100519.05
2023-03-21T05:10:20.667Z,100519.02
2023-03-21T05:12:48.838Z,100514.67
2023-03-21T05:22:52.823Z,100511.45
2023-03-21T05:25:35.576Z,100517.45
2023-03-21T05:28:11.936Z,100519.42
2023-03-21T05:30:43.592Z,100521.02
2023-03-21T05:33:13.324Z,100520.61
2023-03-21T05:43:17.353Z,100517.02
2023-03-21T05:45:48.730Z,100520.38
2023-03-21T05:48:18.106Z,100515.20
2023-03-21T05:50:59.882Z,100513.27
2023-03-21T05:53:28.076Z,100514.77
2023-03-21T05:55:56.746Z,100513.21
2023-03-21T05:58:41.110Z,100514.80
2023-03-21T06:01:10.590Z,100511.61
2023-03-21T06:03:39.899Z,100507.01
2023-03-21T06:06:14.465Z,100508.90
2023-03-21T06:16:25.608Z,100508.29
2023-03-21T06:18:57.228Z,100506.64
2023-03-21T06:21:51.494Z,100499.73
2023-03-21T06:24:20.097Z,100498.52
2023-03-21T06:26:49.074Z,100498.03
2023-03-21T06:29:20.835Z,100498.70
2023-03-21T06:31:50.360Z,100495.97
2023-03-21T06:34:18.815Z,100497.42
2023-03-21T06:36:49.634Z,100494.61
2023-03-21T06:39:20.592Z,100491.58
2023-03-21T06:41:49.480Z,100493.95
2023-03-21T06:44:19.711Z,100490.52
2023-03-21T06:46:55.083Z,100495.39
2023-03-21T06:49:23.954Z,100493.80
2023-03-21T06:51:52.550Z,100492.90
2023-03-21T06:54:22.491Z,100496.34
2023-03-21T06:56:57.099Z,100491.89
2023-03-21T06:59:30.360Z,100490.05
2023-03-21T07:02:11.734Z,100492.48
2023-03-21T07:05:00.917Z,100491.64
2023-03-21T07:07:30.950Z,100492.35
2023-03-21T07:10:11.460Z,100489.05
2023-03-21T07:12:55.793Z,100488.13
2023-03-21T07:15:45.656Z,100491.23
2023-03-21T07:18:14.144Z,100489.05
2023-03-21T07:20:48.183Z,100485.47
2023-03-21T07:23:18.913Z,100482.34
2023-03-21T07:25:50.311Z,100483.16
2023-03-21T07:28:19.610Z,100479.80
2023-03-21T07:30:56.408Z,100480.98
2023-03-21T07:33:25.377Z,100484.26
2023-03-21T07:35:55.264Z,100482.83
2023-03-21T07:38:28.333Z,100482.13
2023-03-21T07:40:58.505Z,100485.96
2023-03-21T07:43:26.682Z,100481.03
2023-03-21T07:46:00.055Z,100479.54
2023-03-21T07:48:29.178Z,100478.61
2023-03-21T07:50:57.668Z,100480.80
2023-03-21T07:53:26.221Z,100481.88
2023-03-21T08:03:30.058Z,100478.80
2023-03-21T08:06:04.018Z,100481.31
2023-03-21T08:08:33.595Z,100481.05
2023-03-21T08:11:03.690Z,100479.60
2023-03-21T08:13:33.777Z,100478.90
2023-03-21T08:16:02.131Z,100478.87
2023-03-21T08:18:30.588Z,100481.91
2023-03-21T08:20:59.435Z,100480.91
2023-03-21T08:23:27.515Z,100474.60
2023-03-21T08:25:56.687Z,100473.16
2023-03-21T08:28:24.999Z,100470.35
2023-03-21T08:30:53.346Z,100467.52
2023-03-21T08:33:21.834Z,100468.13
2023-03-21T08:35:51.849Z,100463.16
2023-03-21T08:38:20.775Z,100460.19
2023-03-21T08:40:48.788Z,100458.83
2023-03-21T08:43:17.504Z,100458.96
2023-03-21T08:45:45.964Z,100456.47
2023-03-21T08:48:19.565Z,100458.31
2023-03-21T08:50:47.915Z,100457.59
2023-03-21T08:53:16.236Z,100460.95
2023-03-21T08:55:44.828Z,100458.05
2023-03-21T08:58:17.995Z,100458.66
2023-03-21T09:00:46.985Z,100458.45
2023-03-21T09:03:16.414Z,100462.55
2023-03-21T09:05:45.709Z,100457.77
2023-03-21T09:08:14.434Z,100454.78
2023-03-21T09:10:42.664Z,100451.49
2023-03-21T09:13:11.045Z,100450.98
2023-03-21T10:00:21.642Z,100443.79
2023-03-21T10:02:57.383Z,100436.59
2023-03-21T10:05:27.860Z,100436.69
2023-03-21T10:08:07.208Z,100436.21
2023-03-21T10:10:43.568Z,100433.98
2023-03-21T10:13:36.343Z,100432.46
2023-03-21T10:16:16.067Z,100430.50
2023-03-21T10:18:44.559Z,100428.02
2023-03-21T10:21:51.504Z,100420.08
2023-03-21T10:24:14.304Z,100427.52
2023-03-21T10:26:42.787Z,100423.98
2023-03-21T10:29:14.461Z,100424.52
2023-03-21T10:31:42.653Z,100427.58
2023-03-21T10:34:18.420Z,100423.81
2023-03-21T10:36:47.052Z,100418.73
2023-03-21T10:39:18.869Z,100416.90
2023-03-21T10:41:47.046Z,100416.22
2023-03-21T10:44:17.518Z,100414.45
2023-03-21T10:46:53.833Z,100410.79
2023-03-21T10:49:22.072Z,100413.26
2023-03-21T10:51:51.912Z,100412.55
2023-03-21T10:54:21.403Z,100414.35
2023-03-21T10:57:09.113Z,100409.06
2023-03-21T11:00:21.665Z,100411.80
2023-03-21T11:03:22.074Z,100404.27
2023-03-21T11:05:57.396Z,100395.55
2023-03-21T11:08:27.437Z,100394.14
2023-03-21T11:11:12.546Z,100393.95
2023-03-21T11:13:44.465Z,100393.19
2023-03-21T11:16:19.517Z,100392.77
2023-03-21T11:18:52.370Z,100388.60
2023-03-21T11:21:24.286Z,100393.00
2023-03-21T11:23:53.988Z,100388.02
2023-03-21T11:26:32.779Z,100385.28
2023-03-21T11:29:01.553Z,100380.00
2023-03-21T11:31:39.869Z,100382.16
2023-03-21T11:34:12.420Z,100377.47
2023-03-21T11:37:41.649Z,100376.95
2023-03-21T11:40:20.027Z,100373.30
2023-03-21T11:42:53.163Z,100366.17
2023-03-21T11:45:24.501Z,100367.90
2023-03-21T11:47:58.184Z,100367.13
2023-03-21T11:50:35.434Z,100362.73
2023-03-21T11:53:13.650Z,100360.94
2023-03-21T11:56:02.645Z,100357.66
2023-03-21T11:58:52.574Z,100354.98
2023-03-21T12:01:24.114Z,100352.94
2023-03-21T12:04:15.181Z,100352.22
2023-03-21T12:06:55.568Z,100350.65
2023-03-21T12:09:34.069Z,100348.64
2023-03-21T12:12:02.423Z,100346.71
2023-03-21T12:14:48.485Z,100342.64
2023-03-21T12:17:40.714Z,100338.98
2023-03-21T12:20:31.083Z,100340.21
2023-03-21T12:23:04.238Z,100337.29
2023-03-21T12:25:44.980Z,100334.20
2023-03-21T12:29:00.242Z,100329.34
2023-03-21T12:31:36.295Z,100326.14
2023-03-21T12:34:18.110Z,100324.45
2023-03-21T12:37:25.038Z,100324.27
2023-03-21T12:39:57.671Z,100319.40
2023-03-21T12:42:40.269Z,100319.09
2023-03-21T12:45:46.947Z,100321.86
2023-03-21T12:48:42.594Z,100320.63
2023-03-21T12:51:20.159Z,100318.73
2023-03-21T12:54:21.513Z,100315.53
2023-03-21T12:57:03.121Z,100312.14
2023-03-21T13:00:12.182Z,100314.36
2023-03-21T13:03:01.023Z,100308.41
2023-03-21T13:05:32.621Z,100308.14
2023-03-21T13:08:21.233Z,100307.69
2023-03-21T13:10:49.597Z,100303.60
2023-03-21T13:13:27.385Z,100303.90
2023-03-21T13:16:07.772Z,100301.06
2023-03-21T13:18:39.434Z,100301.59
2023-03-21T13:21:22.326Z,100299.74
2023-03-21T13:24:05.713Z,100298.14
2023-03-21T13:26:40.069Z,100300.11
2023-03-21T13:29:22.915Z,100293.96
2023-03-21T13:31:53.855Z,100292.52
2023-03-21T13:34:24.373Z,100290.14
2023-03-21T13:36:54.338Z,100286.86
2023-03-21T13:39:28.148Z,100288.08
2023-03-21T13:41:56.645Z,100283.50
2023-03-21T13:44:42.146Z,100278.23
2023-03-21T13:47:38.397Z,100277.33
2023-03-21T13:50:31.043Z,100272.84
2023-03-21T13:53:15.685Z,100281.16
2023-03-21T13:55:46.923Z,100283.28
2023-03-21T13:58:50.544Z,100282.85
2023-03-21T14:01:42.639Z,100282.13
2023-03-21T14:04:24.145Z,100284.71
2023-03-21T14:07:07.321Z,100285.66
2023-03-21T14:09:48.581Z,100289.80
2023-03-21T14:12:25.240Z,100292.46
2023-03-21T14:15:20.181Z,100290.39
2023-03-21T14:17:57.549Z,100290.50
2023-03-21T14:20:29.605Z,100295.10
2023-03-21T14:22:57.863Z,100293.13
2023-03-21T14:25:37.226Z,100290.73
2023-03-21T14:28:21.849Z,100288.02
2023-03-21T14:30:55.933Z,100290.23
2023-03-21T14:33:28.666Z,100288.24
2023-03-21T14:36:02.077Z,100290.23
2023-03-21T14:38:35.732Z,100290.35
2023-03-21T14:41:04.773Z,100290.13
2023-03-21T14:43:37.756Z,100292.69
2023-03-21T14:46:06.890Z,100289.10
2023-03-21T14:48:35.843Z,100291.77
2023-03-21T14:51:10.487Z,100287.24
2023-03-21T14:53:41.649Z,100292.83
2023-03-21T14:56:17.262Z,100293.02
2023-03-21T14:58:53.749Z,100295.52
2023-03-21T15:01:32.713Z,100295.13
2023-03-21T15:04:01.866Z,100299.66
2023-03-21T15:06:30.753Z,100305.36
2023-03-21T15:09:04.355Z,100306.46
2023-03-21T15:11:37.747Z,100307.59
2023-03-21T15:14:10.430Z,100306.55
2023-03-21T15:16:40.102Z,100307.06
2023-03-21T15:19:09.858Z,100308.98
2023-03-21T15:21:39.778Z,100308.48
2023-03-21T15:24:15.919Z,100312.79
2023-03-21T15:26:50.562Z,100319.37
2023-03-21T15:29:18.975Z,100320.41
2023-03-21T15:31:48.717Z,100319.95
2023-03-21T15:34:20.209Z,100320.49
2023-03-21T15:36:49.352Z,100321.60
2023-03-21T15:39:20.130Z,100320.11
2023-03-21T15:42:02.910Z,100321.16
2023-03-21T15:44:31.427Z,100323.73
2023-03-21T15:47:00.310Z,100328.41
2023-03-21T15:49:33.061Z,100324.00
2023-03-21T15:52:11.689Z,100327.45
2023-03-21T15:54:57.120Z,100323.41
2023-03-21T15:57:33.191Z,100332.02
2023-03-21T16:00:26.091Z,100333.42
2023-03-21T16:02:59.560Z,100335.40
2023-03-21T16:05:30.824Z,100340.53
2023-03-21T16:08:04.695Z,100339.95
2023-03-21T16:10:38.515Z,100339.34
2023-03-21T16:13:07.452Z,100338.19
2023-03-21T16:15:35.683Z,100336.80
2023-03-21T16:18:06.618Z,100338.02
2023-03-21T16:20:41.931Z,100340.39
2023-03-21T16:23:14.923Z,100341.19
2023-03-21T16:25:44.665Z,100342.93
2023-03-21T16:28:16.449Z,100349.33
2023-03-21T16:30:44.985Z,100350.01
2023-03-21T16:33:14.783Z,100353.59
2023-03-21T16:35:44.438Z,100354.39
2023-03-21T16:38:13.805Z,100360.15
2023-03-21T16:40:44.032Z,100362.05
2023-03-21T16:43:12.747Z,100363.23
2023-03-21T16:45:44.413Z,100365.10
2023-03-21T16:48:18.437Z,100366.27
2023-03-21T16:50:48.334Z,100369.52
2023-03-21T16:53:17.260Z,100366.00
2023-03-21T16:55:46.345Z,100369.69
2023-03-21T16:58:22.032Z,100367.77
2023-03-21T17:00:51.117Z,100370.63
2023-03-21T17:03:19.511Z,100379.70
2023-03-21T17:05:50.041Z,100379.20
2023-03-21T17:08:20.463Z,100383.65
2023-03-21T17:10:48.999Z,100384.66
2023-03-21T17:13:19.462Z,100386.77
2023-03-21T17:15:48.737Z,100390.73
2023-03-21T17:18:18.940Z,100394.09
2023-03-21T17:20:49.475Z,100395.74
2023-03-21T17:23:18.806Z,100398.00
2023-03-21T17:25:52.357Z,100397.45
2023-03-21T17:28:22.130Z,100396.74
2023-03-21T17:30:52.155Z,100400.34
2023-03-21T17:33:22.378Z,100405.56
2023-03-21T17:35:51.013Z,100408.74
2023-03-21T17:38:20.157Z,100410.89
2023-03-21T17:40:50.102Z,100412.72
2023-03-21T17:43:24.344Z,100419.80
2023-03-21T17:45:52.840Z,100416.89
2023-03-21T17:48:22.701Z,100415.19
2023-03-21T17:50:51.433Z,100417.52
2023-03-21T17:53:20.162Z,100413.56
2023-03-21T17:55:56.464Z,100417.09
2023-03-21T17:58:28.730Z,100418.10
2023-03-21T18:00:57.900Z,100423.61
2023-03-21T18:03:26.566Z,100421.23
2023-03-21T18:05:54.747Z,100427.84
2023-03-21T18:08:29.665Z,100423.50
2023-03-21T18:10:59.807Z,100427.25
2023-03-21T18:13:28.423Z,100428.77
2023-03-21T18:15:56.752Z,100433.00
2023-03-21T18:18:27.419Z,100434.11
2023-03-21T18:20:58.362Z,100436.55
2023-03-21T18:23:27.338Z,100441.02
2023-03-21T18:25:56.505Z,100442.49
2023-03-21T18:28:25.410Z,100440.90
2023-03-21T18:31:18.003Z,100446.95
2023-03-21T18:33:46.895Z,100451.44
2023-03-21T18:36:25.022Z,100451.83
2023-03-21T18:38:56.971Z,100454.57
2023-03-21T18:41:26.112Z,100454.87
2023-03-21T18:44:13.989Z,100449.16
2023-03-21T18:46:47.577Z,100450.30
2023-03-21T18:52:07.082Z,100457.30
2023-03-21T18:54:36.733Z,100456.48
2023-03-21T18:57:34.647Z,100462.63
2023-03-21T18:59:55.056Z,100463.98
2023-03-21T19:02:23.473Z,100465.42
2023-03-21T19:04:52.364Z,100466.02
2023-03-21T19:07:20.999Z,100463.71
2023-03-21T19:10:15.419Z,100466.15
2023-03-21T19:12:43.250Z,100466.20
2023-03-21T19:15:11.961Z,100467.99
2023-03-21T19:20:32.655Z,100464.07
2023-03-21T19:23:01.834Z,100460.16
2023-03-21T19:25:30.469Z,100454.94
2023-03-21T19:27:59.353Z,100456.70
2023-03-21T19:30:32.122Z,100461.14
2023-03-21T19:33:02.102Z,100457.69
2023-03-21T19:35:31.321Z,100458.41
2023-03-21T19:38:00.652Z,100458.11
2023-03-21T19:40:29.830Z,100455.32
2023-03-21T19:42:58.196Z,100455.40
2023-03-21T19:45:29.484Z,100457.40
2023-03-21T19:47:57.882Z,100458.02
2023-03-21T19:51:13.400Z,100457.87
2023-03-21T19:53:19.782Z,100463.48
2023-03-21T19:55:54.145Z,100463.91
2023-03-21T19:58:24.923Z,100467.45
2023-03-21T20:00:53.162Z,100462.60
2023-03-21T20:03:22.414Z,100462.69
2023-03-21T20:05:50.904Z,100464.12
2023-03-21T20:08:20.631Z,100464.95
2023-03-21T20:10:50.525Z,100464.07
2023-03-21T20:13:18.954Z,100465.63
2023-03-21T20:15:48.281Z,100466.67
2023-03-21T20:18:20.670Z,100464.29
2023-03-21T20:20:48.948Z,100463.23
2023-03-21T20:23:17.336Z,100461.65
2023-03-21T20:25:47.248Z,100462.45
2023-03-21T20:28:24.339Z,100466.04
2023-03-21T20:30:58.809Z,100466.46
2023-03-21T20:33:28.148Z,100468.03
2023-03-21T20:38:51.995Z,100465.63
2023-03-21T20:41:20.720Z,100464.69
2023-03-21T20:46:38.621Z,100474.55
2023-03-21T20:49:09.463Z,100474.30
2023-03-21T20:54:27.624Z,100477.52
2023-03-21T20:56:56.862Z,100483.07
2023-03-21T20:59:28.143Z,100477.84
2023-03-21T21:03:41.483Z,100474.02
2023-03-21T21:06:15.955Z,100477.40
2023-03-21T21:08:45.961Z,100483.13
2023-03-21T21:12:04.754Z,100482.02
2023-03-21T21:14:07.256Z,100482.20
2023-03-21T21:16:37.480Z,100484.66
2023-03-21T21:19:07.392Z,100481.20
2023-03-21T21:21:36.316Z,100480.27
2023-03-21T21:24:07.648Z,100479.02
2023-03-21T21:26:41.301Z,100478.18
2023-03-21T21:29:17.229Z,100479.52
2023-03-21T21:31:49.352Z,100476.15
2023-03-21T21:34:20.400Z,100480.23
2023-03-21T21:36:50.145Z,100481.05
2023-03-21T21:39:18.547Z,100484.68
2023-03-21T21:41:46.997Z,100486.39
2023-03-21T21:44:16.596Z,100485.03
2023-03-21T21:46:45.265Z,100486.67
2023-03-21T21:49:14.580Z,100487.16
2023-03-21T21:51:47.720Z,100485.02
2023-03-21T21:54:26.388Z,100487.55
2023-03-21T21:56:54.600Z,100485.00
2023-03-21T21:59:24.522Z,100492.46
2023-03-21T22:01:58.925Z,100489.52
2023-03-21T22:04:28.052Z,100489.48
2023-03-21T22:06:56.688Z,100490.77
2023-03-21T22:09:25.785Z,100493.25
2023-03-21T22:11:57.634Z,100491.63
2023-03-21T22:14:30.772Z,100490.00
2023-03-21T22:17:06.080Z,100492.28
2023-03-21T22:19:34.451Z,100492.58
2023-03-21T22:22:09.508Z,100496.02
2023-03-21T22:24:39.297Z,100498.84
2023-03-21T22:27:07.962Z,100498.77
2023-03-21T22:29:36.256Z,100501.20
2023-03-21T22:32:05.356Z,100497.59
2023-03-21T22:34:33.753Z,100496.58
2023-03-21T22:37:02.748Z,100495.55
2023-03-21T22:39:31.527Z,100491.81
2023-03-21T22:42:04.861Z,100490.03
2023-03-21T22:44:37.496Z,100492.48
2023-03-21T22:47:08.089Z,100492.34
2023-03-21T22:49:38.320Z,100492.72
2023-03-21T22:52:07.199Z,100489.91
2023-03-21T22:54:43.398Z,100489.73
2023-03-21T22:57:13.797Z,100486.89
2023-03-21T22:59:43.293Z,100487.34
2023-03-21T23:02:12.295Z,100481.10
2023-03-21T23:04:41.968Z,100484.42
2023-03-21T23:07:10.809Z,100483.61
2023-03-21T23:09:39.207Z,100488.57
2023-03-21T23:12:07.789Z,100485.52
2023-03-21T23:14:37.413Z,100492.80
2023-03-21T23:17:10.594Z,100497.86
2023-03-21T23:19:41.163Z,100495.30
2023-03-21T23:22:11.903Z,100493.41
2023-03-21T23:24:41.662Z,100496.05
2023-03-21T23:27:09.756Z,100493.83
2023-03-21T23:29:39.144Z,100494.13
2023-03-21T23:32:07.920Z,100492.38
2023-03-21T23:34:37.130Z,100490.73
2023-03-21T23:37:07.265Z,100492.27
2023-03-21T23:39:35.639Z,100491.24
2023-03-21T23:42:04.738Z,100486.30
2023-03-21T23:44:33.520Z,100488.77
2023-03-21T23:47:05.601Z,100489.65
2023-03-21T23:49:38.156Z,100490.30
2023-03-21T23:52:06.714Z,100491.55
2023-03-21T23:54:35.130Z,100489.31
2023-03-21T23:57:04.531Z,100487.84
2023-03-21T23:59:40.890Z,100487.33
